createdAt,value
2023-01-30T00:00:20.086Z,11.83
2023-01-30T00:03:07.007Z,11.80
2023-01-30T00:05:53.945Z,11.63
2023-01-30T00:08:40.989Z,11.77
2023-01-30T00:11:29.961Z,11.63
2023-01-30T00:14:17.003Z,11.90
2023-01-30T00:17:03.894Z,11.37
2023-01-30T00:19:50.871Z,11.53
2023-01-30T00:22:37.943Z,10.73
2023-01-30T00:25:29.087Z,11.23
2023-01-30T00:28:16.126Z,11.07
2023-01-30T00:31:03.112Z,10.87
2023-01-30T00:33:50.035Z,10.97
2023-01-30T00:36:36.951Z,12.00
2023-01-30T00:39:23.976Z,11.70
2023-01-30T00:42:29.671Z,11.07
2023-01-30T00:45:35.338Z,11.27
2023-01-30T00:48:22.511Z,10.37
2023-01-30T00:51:10.228Z,11.37
2023-01-30T00:53:57.219Z,10.73
2023-01-30T00:56:44.204Z,10.37
2023-01-30T00:59:31.395Z,10.97
2023-01-30T01:02:18.522Z,10.77
2023-01-30T01:05:05.982Z,11.90
2023-01-30T01:07:53.069Z,10.83
2023-01-30T01:10:40.114Z,10.93
2023-01-30T01:13:27.068Z,11.37
2023-01-30T01:16:14.013Z,10.83
2023-01-30T01:19:01.478Z,10.70
2023-01-30T01:21:48.498Z,11.17
2023-01-30T01:24:35.456Z,11.03
2023-01-30T01:27:22.443Z,11.43
2023-01-30T01:30:10.075Z,10.53
2023-01-30T01:32:57.509Z,10.67
2023-01-30T01:35:44.624Z,10.93
2023-01-30T01:38:31.869Z,11.03
2023-01-30T01:41:18.937Z,10.80
2023-01-30T01:44:11.211Z,11.83
2023-01-30T01:47:00.019Z,10.70
2023-01-30T01:49:46.986Z,11.77
2023-01-30T01:52:33.999Z,11.57
2023-01-30T01:55:24.138Z,11.97
2023-01-30T01:58:15.812Z,10.53
2023-01-30T02:01:03.089Z,11.37
2023-01-30T02:03:56.607Z,10.87
2023-01-30T02:06:43.599Z,11.27
2023-01-30T02:09:30.589Z,10.03
2023-01-30T02:12:18.184Z,10.50
2023-01-30T02:15:06.888Z,10.07
2023-01-30T02:17:54.225Z,10.13
2023-01-30T02:21:10.289Z,10.80
2023-01-30T02:24:30.037Z,11.10
2023-01-30T02:27:54.877Z,10.57
2023-01-30T02:30:57.247Z,10.83
2023-01-30T02:33:46.869Z,10.80
2023-01-30T02:37:02.481Z,10.97
2023-01-30T02:40:11.290Z,9.97
2023-01-30T02:43:18.285Z,10.50
2023-01-30T02:46:17.913Z,10.63
2023-01-30T02:49:20.526Z,10.33
2023-01-30T02:52:11.525Z,11.50
2023-01-30T02:54:58.479Z,10.27
2023-01-30T02:57:45.415Z,10.77
2023-01-30T03:00:48.773Z,10.23
2023-01-30T03:04:04.023Z,10.07
2023-01-30T03:07:03.229Z,10.43
2023-01-30T03:10:06.676Z,10.17
2023-01-30T03:13:23.196Z,10.70
2023-01-30T03:16:21.011Z,10.63
2023-01-30T03:19:12.888Z,9.73
2023-01-30T03:22:00.197Z,10.43
2023-01-30T03:24:49.185Z,10.40
2023-01-30T03:27:37.493Z,9.87
2023-01-30T03:30:26.595Z,10.87
2023-01-30T03:33:21.121Z,10.27
2023-01-30T03:36:10.048Z,10.13
2023-01-30T03:38:57.457Z,10.27
2023-01-30T03:41:44.874Z,10.80
2023-01-30T03:44:31.845Z,10.23
2023-01-30T03:47:18.773Z,11.20
2023-01-30T03:50:07.965Z,10.00
2023-01-30T03:52:55.020Z,11.13
2023-01-30T03:55:44.676Z,10.47
2023-01-30T03:58:31.922Z,10.37
2023-01-30T04:01:22.342Z,10.93
2023-01-30T04:04:09.363Z,10.73
2023-01-30T04:06:56.396Z,9.73
2023-01-30T04:09:44.134Z,10.27
2023-01-30T04:12:32.027Z,10.50
2023-01-30T04:15:20.515Z,10.10
2023-01-30T04:18:07.658Z,10.30
2023-01-30T04:21:10.628Z,9.60
2023-01-30T04:23:59.246Z,10.20
2023-01-30T04:26:47.109Z,10.93
2023-01-30T04:29:35.306Z,11.23
2023-01-30T04:32:26.580Z,10.50
2023-01-30T04:35:13.876Z,11.27
2023-01-30T04:38:01.262Z,10.40
2023-01-30T04:40:52.853Z,10.83
2023-01-30T04:43:40.148Z,10.30
2023-01-30T04:46:41.533Z,10.30
2023-01-30T04:49:28.531Z,11.03
2023-01-30T04:52:18.312Z,11.27
2023-01-30T04:55:05.716Z,10.93
2023-01-30T04:57:52.662Z,11.23
2023-01-30T05:00:39.705Z,10.57
2023-01-30T05:03:26.762Z,10.90
2023-01-30T05:06:13.704Z,11.57
2023-01-30T05:09:01.609Z,11.00
2023-01-30T05:11:48.514Z,10.50
2023-01-30T05:14:35.521Z,10.77
2023-01-30T05:17:22.641Z,11.37
2023-01-30T05:20:10.695Z,10.93
2023-01-30T05:22:57.663Z,11.23
2023-01-30T05:25:44.636Z,10.67
2023-01-30T05:28:32.248Z,10.73
2023-01-30T05:31:19.437Z,11.67
2023-01-30T05:34:06.381Z,11.33
2023-01-30T05:36:53.293Z,10.43
2023-01-30T05:39:40.257Z,11.10
2023-01-30T05:42:27.186Z,10.97
2023-01-30T05:45:14.197Z,10.97
2023-01-30T05:48:01.523Z,11.20
2023-01-30T05:50:51.717Z,10.80
2023-01-30T05:53:38.642Z,10.53
2023-01-30T05:56:25.627Z,11.37
2023-01-30T05:59:12.691Z,10.73
2023-01-30T06:01:59.601Z,11.40
2023-01-30T06:04:46.511Z,11.83
2023-01-30T06:07:33.415Z,10.63
2023-01-30T06:10:20.453Z,11.13
2023-01-30T06:13:07.520Z,10.67
2023-01-30T06:15:54.484Z,10.67
2023-01-30T06:18:41.855Z,10.50
2023-01-30T06:21:28.745Z,10.17
2023-01-30T06:24:15.669Z,10.10
2023-01-30T06:27:02.564Z,10.30
2023-01-30T06:29:49.483Z,10.60
2023-01-30T06:32:36.404Z,10.70
2023-01-30T06:35:23.330Z,10.67
2023-01-30T06:38:11.613Z,9.80
2023-01-30T06:40:58.546Z,11.03
2023-01-30T06:43:45.449Z,10.53
2023-01-30T06:46:32.427Z,10.37
2023-01-30T06:49:19.400Z,10.93
2023-01-30T06:52:06.361Z,11.47
2023-01-30T06:54:53.269Z,10.73
2023-01-30T06:57:41.128Z,10.30
2023-01-30T07:00:28.309Z,10.20
2023-01-30T07:03:17.479Z,10.40
2023-01-30T07:06:04.473Z,10.17
2023-01-30T07:08:51.378Z,10.33
2023-01-30T07:11:38.329Z,10.40
2023-01-30T07:14:25.347Z,10.43
2023-01-30T07:17:12.256Z,10.67
2023-01-30T07:19:59.250Z,10.27
2023-01-30T07:22:53.089Z,9.93
2023-01-30T07:25:39.987Z,10.10
2023-01-30T07:28:26.960Z,10.97
2023-01-30T07:31:13.882Z,10.23
2023-01-30T07:34:00.767Z,10.40
2023-01-30T07:36:47.666Z,10.67
2023-01-30T07:39:35.362Z,10.43
2023-01-30T07:42:22.318Z,10.13
2023-01-30T07:45:10.035Z,10.90
2023-01-30T07:47:57.164Z,11.70
2023-01-30T07:50:44.277Z,11.17
2023-01-30T07:53:31.261Z,10.10
2023-01-30T07:56:19.874Z,9.90
2023-01-30T07:59:06.778Z,12.03
2023-01-30T08:01:53.786Z,11.37
2023-01-30T08:04:40.736Z,11.73
2023-01-30T08:07:27.656Z,10.37
2023-01-30T08:10:15.334Z,11.10
2023-01-30T08:13:02.664Z,11.47
2023-01-30T08:15:50.246Z,11.40
2023-01-30T08:18:37.221Z,11.63
2023-01-30T08:21:24.158Z,12.03
2023-01-30T08:24:11.088Z,13.10
2023-01-30T08:26:58.051Z,11.80
2023-01-30T08:29:45.140Z,11.40
2023-01-30T08:32:33.081Z,11.97
2023-01-30T08:35:20.001Z,13.27
2023-01-30T08:38:09.021Z,12.10
2023-01-30T08:40:57.920Z,13.27
2023-01-30T08:43:44.844Z,11.50
2023-01-30T08:46:31.859Z,12.87
2023-01-30T08:49:18.928Z,11.77
2023-01-30T08:52:05.811Z,13.13
2023-01-30T08:54:52.810Z,12.97
2023-01-30T08:57:39.780Z,11.17
2023-01-30T09:00:28.117Z,11.23
2023-01-30T09:03:16.025Z,10.30
2023-01-30T09:06:03.456Z,13.63
2023-01-30T09:08:50.441Z,12.23
2023-01-30T09:11:37.331Z,10.27
2023-01-30T09:14:24.407Z,10.80
2023-01-30T09:17:11.505Z,10.57
2023-01-30T09:19:58.452Z,9.90
2023-01-30T09:22:45.421Z,9.97
2023-01-30T09:25:32.345Z,9.80
2023-01-30T09:28:19.251Z,10.23
2023-01-30T09:31:06.238Z,9.43
2023-01-30T09:33:53.255Z,9.10
2023-01-30T09:36:40.530Z,9.60
2023-01-30T09:39:28.360Z,9.27
2023-01-30T09:42:30.270Z,9.00
2023-01-30T09:45:42.193Z,8.53
2023-01-30T09:48:58.052Z,8.27
2023-01-30T09:52:04.865Z,8.00
2023-01-30T09:54:59.482Z,8.67
2023-01-30T09:57:51.552Z,8.27
2023-01-30T10:00:44.501Z,7.83
2023-01-30T10:03:39.690Z,7.00
2023-01-30T10:06:27.092Z,7.77
2023-01-30T10:09:27.919Z,7.93
2023-01-30T10:12:35.147Z,7.67
2023-01-30T10:15:43.805Z,7.33
2023-01-30T10:18:55.940Z,6.60
2023-01-30T10:21:50.723Z,7.33
2023-01-30T10:24:55.935Z,6.90
2023-01-30T10:27:52.715Z,6.30
2023-01-30T10:30:40.597Z,7.00
2023-01-30T10:33:36.628Z,6.03
2023-01-30T10:36:32.166Z,6.87
2023-01-30T10:39:28.318Z,6.53
2023-01-30T10:42:22.368Z,6.97
2023-01-30T10:45:16.360Z,6.80
2023-01-30T10:48:20.125Z,6.67
2023-01-30T10:51:17.298Z,6.87
2023-01-30T10:54:19.651Z,6.27
2023-01-30T10:57:36.352Z,5.97
2023-01-30T11:00:42.808Z,5.60
2023-01-30T11:03:41.892Z,6.03
2023-01-30T11:06:30.482Z,5.80
2023-01-30T11:09:17.515Z,5.50
2023-01-30T11:12:04.538Z,5.90
2023-01-30T11:14:56.637Z,6.03
2023-01-30T11:17:48.138Z,5.53
2023-01-30T11:20:41.065Z,5.57
2023-01-30T11:23:40.291Z,6.10
2023-01-30T11:26:46.508Z,4.90
2023-01-30T11:29:37.499Z,5.77
2023-01-30T11:32:29.572Z,5.37
2023-01-30T11:35:30.656Z,5.30
2023-01-30T11:38:38.779Z,8.30
2023-01-30T11:41:25.872Z,8.27
2023-01-30T11:44:13.048Z,8.07
2023-01-30T11:47:23.928Z,5.90
2023-01-30T11:50:21.052Z,5.70
2023-01-30T11:53:34.665Z,5.43
2023-01-30T11:56:30.460Z,4.90
2023-01-30T11:59:30.604Z,5.23
2023-01-30T12:02:25.266Z,5.40
2023-01-30T12:05:23.611Z,4.93
2023-01-30T12:08:17.492Z,4.93
2023-01-30T12:11:25.221Z,5.37
2023-01-30T12:14:35.479Z,4.20
2023-01-30T12:17:32.225Z,4.50
2023-01-30T12:20:49.203Z,4.10
2023-01-30T12:23:48.915Z,3.90
2023-01-30T12:26:44.121Z,4.10
2023-01-30T12:29:40.966Z,3.80
2023-01-30T12:32:31.901Z,3.90
2023-01-30T12:35:28.631Z,4.30
2023-01-30T12:38:41.480Z,4.03
2023-01-30T12:41:38.413Z,4.20
2023-01-30T12:45:19.950Z,4.37
2023-01-30T12:48:25.423Z,4.67
2023-01-30T12:51:49.199Z,3.57
2023-01-30T12:58:23.906Z,4.27
2023-01-30T13:01:43.128Z,4.17
2023-01-30T13:05:10.774Z,4.10
2023-01-30T13:08:28.467Z,3.50
2023-01-30T13:11:59.716Z,3.90
2023-01-30T13:15:03.647Z,3.87
2023-01-30T13:17:53.655Z,4.20
2023-01-30T13:20:50.795Z,4.50
2023-01-30T13:23:46.624Z,5.10
2023-01-30T13:26:36.348Z,4.30
2023-01-30T13:29:33.003Z,5.03
2023-01-30T13:32:43.839Z,4.70
2023-01-30T13:35:37.072Z,5.30
2023-01-30T13:38:28.760Z,5.70
2023-01-30T13:41:18.480Z,5.07
2023-01-30T13:44:35.791Z,4.97
2023-01-30T13:47:53.732Z,4.37
2023-01-30T13:50:40.559Z,5.17
2023-01-30T13:53:37.244Z,5.40
2023-01-30T13:56:42.282Z,6.70
2023-01-30T13:59:35.438Z,6.27
2023-01-30T14:02:24.229Z,6.97
2023-01-30T14:05:11.201Z,7.20
2023-01-30T14:07:58.172Z,6.50
2023-01-30T14:10:45.354Z,8.30
2023-01-30T14:13:32.404Z,7.47
2023-01-30T14:16:19.884Z,9.13
2023-01-30T14:19:34.856Z,8.10
2023-01-30T14:22:39.685Z,7.77
2023-01-30T14:25:29.386Z,6.47
2023-01-30T14:28:16.783Z,6.13
2023-01-30T14:31:04.058Z,6.07
2023-01-30T14:33:51.875Z,7.43
2023-01-30T14:36:47.347Z,5.57
2023-01-30T14:39:40.359Z,6.20
2023-01-30T14:42:31.300Z,5.90
2023-01-30T14:45:57.527Z,6.70
2023-01-30T14:48:48.228Z,6.53
2023-01-30T14:51:47.788Z,7.63
2023-01-30T14:54:42.260Z,7.00
2023-01-30T14:57:32.833Z,11.17
2023-01-30T15:00:23.360Z,11.67
2023-01-30T15:03:20.136Z,10.63
2023-01-30T15:06:07.470Z,5.80
2023-01-30T15:08:54.470Z,6.90
2023-01-30T15:11:44.064Z,6.93
2023-01-30T15:14:48.641Z,6.27
2023-01-30T15:18:08.457Z,4.47
2023-01-30T15:21:23.781Z,4.27
2023-01-30T15:24:50.464Z,4.50
2023-01-30T15:28:11.884Z,4.30
2023-01-30T15:31:34.071Z,4.40
2023-01-30T15:34:22.362Z,4.80
2023-01-30T15:37:48.720Z,4.97
2023-01-30T15:40:36.380Z,5.03
2023-01-30T15:44:04.327Z,5.33
2023-01-30T15:47:08.929Z,4.57
2023-01-30T15:50:01.362Z,4.73
2023-01-30T15:52:50.991Z,4.63
2023-01-30T15:55:39.741Z,4.53
2023-01-30T15:58:28.092Z,5.00
2023-01-30T16:01:22.282Z,4.23
2023-01-30T16:04:27.011Z,5.27
2023-01-30T16:07:25.144Z,6.00
2023-01-30T16:10:18.691Z,5.70
2023-01-30T16:13:05.638Z,5.90
2023-01-30T16:16:07.257Z,5.03
2023-01-30T16:19:01.770Z,5.57
2023-01-30T16:21:49.363Z,5.60
2023-01-30T16:24:37.666Z,6.00
2023-01-30T16:27:35.580Z,5.90
2023-01-30T16:30:26.207Z,5.70
2023-01-30T16:33:17.262Z,6.30
2023-01-30T16:36:07.432Z,5.60
2023-01-30T16:38:55.435Z,5.73
2023-01-30T16:41:45.455Z,7.10
2023-01-30T16:44:32.530Z,6.30
2023-01-30T16:47:25.476Z,6.07
2023-01-30T16:50:22.410Z,5.23
2023-01-30T16:53:15.733Z,5.50
2023-01-30T16:56:09.845Z,5.80
2023-01-30T16:59:00.640Z,4.63
2023-01-30T17:01:48.158Z,4.30
2023-01-30T17:04:40.277Z,4.63
2023-01-30T17:07:34.183Z,5.70
2023-01-30T17:10:40.054Z,4.87
2023-01-30T17:13:33.010Z,4.63
2023-01-30T17:16:31.775Z,4.40
2023-01-30T17:19:18.752Z,3.93
2023-01-30T17:22:08.584Z,4.40
2023-01-30T17:25:01.694Z,4.57
2023-01-30T17:27:48.643Z,4.20
2023-01-30T17:30:35.651Z,4.13
2023-01-30T17:33:22.739Z,4.10
2023-01-30T17:36:31.681Z,3.77
2023-01-30T17:39:25.690Z,4.10
2023-01-30T17:42:14.133Z,4.57
2023-01-30T17:45:01.060Z,3.70
2023-01-30T17:47:47.978Z,4.00
2023-01-30T17:50:36.509Z,3.90
2023-01-30T17:53:23.773Z,3.70
2023-01-30T17:56:19.167Z,3.53
2023-01-30T17:59:11.083Z,4.00
2023-01-30T18:01:58.802Z,4.07
2023-01-30T18:04:45.751Z,4.00
2023-01-30T18:07:32.716Z,4.10
2023-01-30T18:10:20.386Z,4.00
2023-01-30T18:13:07.484Z,3.73
2023-01-30T18:15:58.678Z,3.67
2023-01-30T18:18:45.664Z,3.63
2023-01-30T18:21:34.033Z,3.57
2023-01-30T18:24:21.185Z,3.80
2023-01-30T18:27:08.232Z,3.30
2023-01-30T18:29:55.231Z,4.20
2023-01-30T18:32:52.173Z,3.70
2023-01-30T18:35:40.134Z,3.40
2023-01-30T18:38:27.984Z,3.10
2023-01-30T18:41:17.049Z,3.77
2023-01-30T18:44:06.528Z,3.77
2023-01-30T18:46:53.453Z,3.90
2023-01-30T18:49:40.469Z,3.80
2023-01-30T18:52:27.563Z,3.73
2023-01-30T18:55:14.623Z,3.77
2023-01-30T18:58:01.593Z,4.00
2023-01-30T19:00:48.491Z,3.63
2023-01-30T19:03:35.513Z,3.93
2023-01-30T19:06:23.042Z,3.57
2023-01-30T19:09:15.755Z,3.33
2023-01-30T19:12:21.247Z,3.33
2023-01-30T19:15:08.466Z,3.93
2023-01-30T19:17:56.194Z,3.40
2023-01-30T19:20:43.097Z,3.53
2023-01-30T19:23:31.000Z,3.87
2023-01-30T19:26:19.824Z,3.63
2023-01-30T19:29:06.858Z,3.90
2023-01-30T19:31:53.930Z,3.97
2023-01-30T19:34:40.976Z,3.67
2023-01-30T19:37:28.012Z,3.60
2023-01-30T19:40:15.001Z,4.40
2023-01-30T19:43:10.441Z,3.67
2023-01-30T19:46:00.076Z,3.60
2023-01-30T19:48:48.255Z,4.13
2023-01-30T19:51:35.433Z,4.10
2023-01-30T19:54:22.772Z,12.60
2023-01-30T19:57:09.791Z,12.93
2023-01-30T19:59:56.688Z,62.47
2023-01-30T20:02:43.706Z,20.67
2023-01-30T20:05:30.748Z,8.00
2023-01-30T20:08:31.574Z,5.43
2023-01-30T20:11:20.979Z,24.47
2023-01-30T20:14:09.474Z,17.30
2023-01-30T20:16:56.387Z,9.50
2023-01-30T20:19:43.307Z,8.93
2023-01-30T20:22:36.921Z,7.60
2023-01-30T20:25:24.232Z,5.73
2023-01-30T20:28:11.183Z,4.47
2023-01-30T20:30:59.025Z,4.13
2023-01-30T20:33:46.369Z,4.60
2023-01-30T20:36:33.630Z,4.80
2023-01-30T20:39:21.637Z,4.70
2023-01-30T20:42:08.687Z,4.20
2023-01-30T20:44:55.605Z,4.03
2023-01-30T20:47:42.609Z,3.90
2023-01-30T20:50:29.638Z,3.97
2023-01-30T20:53:16.558Z,3.50
2023-01-30T20:56:04.852Z,3.63
2023-01-30T20:58:51.996Z,3.90
2023-01-30T21:01:39.514Z,3.80
2023-01-30T21:04:26.570Z,3.77
2023-01-30T21:07:13.552Z,3.97
2023-01-30T21:10:01.160Z,3.93
2023-01-30T21:12:48.099Z,3.80
2023-01-30T21:15:35.084Z,3.20
2023-01-30T21:18:22.010Z,3.53
2023-01-30T21:21:16.116Z,3.50
2023-01-30T21:24:07.322Z,3.73
2023-01-30T21:26:54.860Z,3.20
2023-01-30T21:29:41.777Z,3.93
2023-01-30T21:32:28.760Z,3.70
2023-01-30T21:35:15.767Z,3.90
2023-01-30T21:38:21.389Z,3.63
2023-01-30T21:41:27.852Z,3.87
2023-01-30T21:44:14.849Z,4.33
2023-01-30T21:47:01.745Z,4.63
2023-01-30T21:49:48.649Z,4.80
2023-01-30T21:52:35.588Z,4.77
2023-01-30T21:55:22.511Z,4.47
2023-01-30T21:58:09.462Z,5.00
2023-01-30T22:01:03.224Z,4.70
2023-01-30T22:03:50.394Z,4.00
2023-01-30T22:06:37.997Z,4.27
2023-01-30T22:09:24.911Z,3.77
2023-01-30T22:12:11.827Z,4.10
2023-01-30T22:14:58.774Z,3.90
2023-01-30T22:17:46.687Z,3.60
2023-01-30T22:20:33.582Z,3.60
2023-01-30T22:23:20.514Z,3.73
2023-01-30T22:26:09.359Z,3.70
2023-01-30T22:29:00.860Z,4.40
2023-01-30T22:31:47.909Z,3.90
2023-01-30T22:34:36.012Z,5.33
2023-01-30T22:37:23.042Z,6.83
2023-01-30T22:40:10.586Z,16.43
2023-01-30T22:42:57.505Z,10.30
2023-01-30T22:45:44.428Z,10.73
2023-01-30T22:48:32.574Z,9.07
2023-01-30T22:51:28.464Z,8.03
2023-01-30T22:54:16.170Z,9.97
2023-01-30T22:57:03.325Z,4.93
2023-01-30T22:59:51.915Z,4.40
2023-01-30T23:02:39.359Z,4.37
2023-01-30T23:05:26.291Z,3.97
2023-01-30T23:08:13.246Z,4.00
2023-01-30T23:11:07.994Z,3.80
2023-01-30T23:13:58.199Z,4.13
2023-01-30T23:16:45.589Z,4.67
2023-01-30T23:19:32.935Z,4.47
2023-01-30T23:22:19.891Z,4.10
2023-01-30T23:25:08.932Z,4.20
2023-01-30T23:27:55.841Z,4.30
2023-01-30T23:30:42.875Z,4.50
2023-01-30T23:33:29.824Z,4.00
2023-01-30T23:36:16.737Z,4.70
2023-01-30T23:39:03.964Z,3.60
2023-01-30T23:41:51.450Z,3.90
2023-01-30T23:44:38.811Z,3.60
2023-01-30T23:47:25.796Z,4.37
2023-01-30T23:50:12.745Z,4.00
2023-01-30T23:52:59.647Z,4.20
2023-01-30T23:55:52.893Z,3.60
2023-01-30T23:58:40.595Z,3.93
